Time;durP1;ratioP1;P1;durP2;ratioP2;P2;SDS_P1;SDS_P2;PMS_P1;PMS_P2;Temp;Humidity;BMP_temperature;BMP_pressure;BME280_temperature;BME280_humidity;BME280_pressure;Samples;Min_cycle;Max_cycle;Signal;HPM_P1;HPM_P2
2024/03/07 00:01:49;;;;;;;59.10;30.40;;;;;;;4.96;53.80;101604.14;107621;1254;96481;-69
2024/03/07 00:04:18;;;;;;;52.50;29.00;;;;;;;4.95;53.97;101604.40;107604;1256;109449;-71
2024/03/07 00:06:48;;;;;;;57.00;28.20;;;;;;;4.94;54.14;101605.31;107636;1257;108169;-69
2024/03/07 00:09:16;;;;;;;55.90;28.50;;;;;;;4.98;54.32;101604.58;107578;1254;107604;-70
2024/03/07 00:11:45;;;;;;;51.20;27.70;;;;;;;5.02;54.23;101606.36;107627;1256;96582;-70
2024/03/07 00:14:13;;;;;;;62.80;31.00;;;;;;;5.06;54.04;101610.96;107612;1254;96445;-68
2024/03/07 00:16:42;;;;;;;61.30;30.10;;;;;;;5.03;53.96;101608.94;107600;1256;109382;-68
2024/03/07 00:19:10;;;;;;;53.80;28.20;;;;;;;4.96;53.92;101607.53;107606;1253;107286;-68
2024/03/07 00:21:39;;;;;;;59.70;29.10;;;;;;;4.92;53.95;101605.63;107623;1254;108119;-66
2024/03/07 00:24:07;;;;;;;50.90;26.70;;;;;;;4.86;54.43;101606.78;107643;1256;96576;-66
2024/03/07 00:26:36;;;;;;;62.10;29.60;;;;;;;4.80;54.44;101603.55;107601;1251;97036;-68
2024/03/07 00:29:06;;;;;;;57.20;29.20;;;;;;;4.72;54.94;101608.94;107590;1255;110654;-69
2024/03/07 00:31:34;;;;;;;55.00;27.90;;;;;;;4.65;55.00;101610.86;107566;1251;108444;-69
2024/03/07 00:34:03;;;;;;;52.40;29.40;;;;;;;4.64;55.40;101612.70;107585;1252;108196;-68
2024/03/07 00:36:43;;;;;;;58.90;28.80;;;;;;;4.68;55.43;101610.55;107607;1251;96470;-70
2024/03/07 00:39:12;;;;;;;58.50;29.00;;;;;;;4.71;55.66;101612.73;107625;1252;96470;-69
2024/03/07 00:41:41;;;;;;;62.00;28.80;;;;;;;4.71;55.63;101609.34;107638;1253;109607;-68
2024/03/07 00:44:10;;;;;;;53.00;29.50;;;;;;;4.66;55.71;101612.05;107657;1254;106705;-68
2024/03/07 00:46:38;;;;;;;62.20;29.50;;;;;;;4.61;55.42;101612.46;107668;1254;107903;-68
2024/03/07 00:49:06;;;;;;;55.70;30.30;;;;;;;4.54;55.78;101613.17;107628;1251;96479;-68
2024/03/07 00:51:35;;;;;;;58.40;28.20;;;;;;;4.40;56.14;101613.49;107633;1251;96485;-67
2024/03/07 00:54:07;;;;;;;59.30;27.90;;;;;;;4.31;56.39;101610.92;107611;1254;110624;-68
2024/03/07 00:56:36;;;;;;;62.10;28.80;;;;;;;4.22;56.61;101618.67;107585;1253;106677;-68
2024/03/07 00:59:05;;;;;;;54.80;28.60;;;;;;;4.13;56.58;101620.86;107611;1254;107703;-68
2024/03/07 01:01:36;;;;;;;57.10;27.70;;;;;;;4.07;56.70;101620.77;107614;1254;96459;-70
2024/03/07 01:04:05;;;;;;;49.70;28.20;;;;;;;4.04;57.11;101620.72;107506;1254;97057;-70
2024/03/07 01:06:34;;;;;;;54.80;27.40;;;;;;;4.05;57.00;101624.41;107637;1254;109940;-70
2024/03/07 01:09:03;;;;;;;55.50;26.60;;;;;;;4.06;57.25;101627.75;107563;1251;108147;-70
2024/03/07 01:11:31;;;;;;;51.70;28.10;;;;;;;4.06;56.97;101627.39;107641;1251;107649;-69
2024/03/07 01:14:00;;;;;;;53.40;25.90;;;;;;;4.10;56.98;101628.11;107603;1251;96475;-68
2024/03/07 01:16:28;;;;;;;56.60;28.30;;;;;;;4.08;56.76;101630.85;107620;1251;96482;-67
2024/03/07 01:18:57;;;;;;;50.90;26.40;;;;;;;4.02;56.87;101627.77;107665;1251;109985;-69
2024/03/07 01:21:26;;;;;;;59.30;27.20;;;;;;;3.98;56.95;101628.48;107584;1251;108554;-68
2024/03/07 01:23:54;;;;;;;53.10;27.60;;;;;;;3.95;56.61;101631.83;107563;1254;107696;-69
2024/03/07 01:26:24;;;;;;;55.10;30.40;;;;;;;3.94;56.92;101631.00;107625;1253;96475;-70
2024/03/07 01:28:54;;;;;;;55.40;26.70;;;;;;;3.90;57.01;101632.95;107670;1256;96609;-68
2024/03/07 01:31:23;;;;;;;59.50;27.70;;;;;;;3.92;56.71;101632.48;107596;1253;110742;-66
2024/03/07 01:33:52;;;;;;;53.40;28.80;;;;;;;3.98;56.83;101634.71;107608;1256;106324;-65
2024/03/07 01:36:20;;;;;;;53.00;28.30;;;;;;;4.02;57.12;101639.49;107630;1254;108384;-66
2024/03/07 01:38:49;;;;;;;52.20;25.90;;;;;;;4.05;56.63;101640.05;107603;1254;96507;-65
2024/03/07 01:41:18;;;;;;;59.20;27.30;;;;;;;4.09;56.41;101640.58;107634;1254;96364;-67
2024/03/07 01:43:46;;;;;;;55.60;27.00;;;;;;;4.01;56.78;101641.50;107481;1257;109894;-67
2024/03/07 01:46:14;;;;;;;51.40;26.90;;;;;;;3.90;56.88;101643.08;107637;1254;108287;-67
2024/03/07 01:48:43;;;;;;;55.50;28.00;;;;;;;3.82;56.71;101648.40;107611;1252;108332;-66
2024/03/07 01:51:12;;;;;;;47.20;25.70;;;;;;;3.72;56.81;101652.58;107630;1251;96527;-67
2024/03/07 01:53:41;;;;;;;50.30;27.40;;;;;;;3.69;56.95;101653.77;107596;1254;97128;-67
2024/03/07 01:56:10;;;;;;;54.90;28.40;;;;;;;3.66;57.10;101657.98;107642;1254;110653;-68
2024/03/07 01:58:39;;;;;;;46.60;25.00;;;;;;;3.62;57.32;101660.14;107671;1256;108625;-69
2024/03/07 02:01:08;;;;;;;53.60;26.50;;;;;;;3.61;57.42;101664.77;107423;1254;108196;-71
2024/03/07 02:03:36;;;;;;;51.10;25.40;;;;;;;3.62;57.07;101666.86;107669;1254;97195;-69
2024/03/07 02:06:05;;;;;;;56.60;28.80;;;;;;;3.65;57.23;101666.38;107551;1254;96531;-70
2024/03/07 02:08:34;;;;;;;49.80;26.10;;;;;;;3.62;57.16;101668.27;107643;1254;110577;-68
2024/03/07 02:11:03;;;;;;;61.90;29.30;;;;;;;3.64;57.48;101668.35;107651;1253;107995;-66
2024/03/07 02:13:32;;;;;;;55.90;27.10;;;;;;;3.60;57.56;101669.46;107635;1254;106568;-67
2024/03/07 02:16:01;;;;;;;62.00;29.00;;;;;;;3.52;57.22;101676.01;107617;1254;96517;-69
2024/03/07 02:18:29;;;;;;;61.90;27.60;;;;;;;3.48;57.46;101672.07;107653;1254;96584;-67
2024/03/07 02:20:58;;;;;;;62.80;27.50;;;;;;;3.41;57.60;101674.49;107644;1251;110821;-67
2024/03/07 02:23:27;;;;;;;54.50;25.90;;;;;;;3.39;57.25;101678.48;107635;1251;108501;-66
2024/03/07 02:25:58;;;;;;;51.60;27.30;;;;;;;3.37;57.50;101683.38;107643;1251;107742;-67
2024/03/07 02:28:28;;;;;;;54.10;26.10;;;;;;;3.29;58.00;101681.94;107559;1251;96494;-66
2024/03/07 02:30:57;;;;;;;55.90;28.00;;;;;;;3.23;58.04;101683.80;107640;1257;96568;-67
2024/03/07 02:33:25;;;;;;;64.30;28.10;;;;;;;3.22;58.10;101689.53;107613;1251;110379;-67
2024/03/07 02:35:54;;;;;;;58.60;27.60;;;;;;;3.23;58.20;101691.43;107612;1254;109310;-66
2024/03/07 02:38:22;;;;;;;52.80;26.30;;;;;;;3.27;58.22;101696.73;107629;1253;108250;-67
2024/03/07 02:40:51;;;;;;;57.00;26.90;;;;;;;3.32;57.79;101700.30;107660;1256;96574;-67
2024/03/07 02:43:21;;;;;;;58.20;27.90;;;;;;;3.31;57.79;101700.85;107707;1253;97005;-68
2024/03/07 02:45:50;;;;;;;54.10;27.90;;;;;;;3.24;57.99;101699.89;107482;1254;110470;-68
2024/03/07 02:48:18;;;;;;;61.00;28.50;;;;;;;3.18;58.09;101701.60;107638;1251;108644;-68
2024/03/07 02:50:47;;;;;;;53.60;26.80;;;;;;;3.11;58.09;101705.23;107616;1251;108297;-67
2024/03/07 02:53:16;;;;;;;64.80;29.40;;;;;;;3.07;58.09;101703.63;107656;1255;96494;-67
2024/03/07 02:55:45;;;;;;;57.10;27.20;;;;;;;3.03;58.43;101708.23;107665;1256;97038;-69
2024/03/07 02:58:13;;;;;;;54.90;25.10;;;;;;;3.03;58.11;101706.29;107617;1251;110525;-67
2024/03/07 03:00:42;;;;;;;49.40;26.00;;;;;;;3.05;58.37;101710.25;107662;1251;107976;-66
2024/03/07 03:03:10;;;;;;;59.20;27.60;;;;;;;3.08;58.40;101709.97;107543;1251;108288;-67
2024/03/07 03:05:39;;;;;;;57.40;27.70;;;;;;;3.12;58.49;101714.23;107439;1254;96651;-68
2024/03/07 03:08:07;;;;;;;49.50;26.90;;;;;;;3.17;58.27;101714.02;107644;1256;96350;-66
2024/03/07 03:10:36;;;;;;;56.70;28.20;;;;;;;3.16;58.10;101714.09;107653;1254;110229;-67
2024/03/07 03:13:04;;;;;;;55.20;26.20;;;;;;;3.09;58.15;101716.48;107642;1252;108719;-67
2024/03/07 03:15:33;;;;;;;59.20;26.80;;;;;;;3.08;57.95;101719.38;107620;1254;107740;-68
2024/03/07 03:18:02;;;;;;;53.00;27.00;;;;;;;3.03;58.12;101721.02;107599;1253;96486;-67
2024/03/07 03:20:35;;;;;;;51.50;26.20;;;;;;;2.97;58.08;101722.27;107653;1253;97041;-68
2024/03/07 03:23:05;;;;;;;54.30;27.00;;;;;;;2.96;58.21;101722.33;107627;1253;109651;-67
2024/03/07 03:25:51;;;;;;;61.40;28.30;;;;;;;2.96;58.20;101724.98;107645;1254;108320;-71
2024/03/07 03:28:20;;;;;;;53.70;25.70;;;;;;;2.97;58.19;101723.52;107610;1253;107609;-74
2024/03/07 03:30:51;;;;;;;56.50;26.90;;;;;;;2.97;58.09;101722.80;107618;1253;96381;-71
2024/03/07 03:33:23;;;;;;;58.10;28.20;;;;;;;3.01;58.22;101726.92;107616;1254;96492;-70
2024/03/07 03:35:51;;;;;;;56.80;28.00;;;;;;;3.05;58.51;101725.34;107644;1253;110846;-69
2024/03/07 03:38:21;;;;;;;59.50;27.40;;;;;;;3.08;58.44;101724.51;107619;1255;108324;-69
2024/03/07 03:40:50;;;;;;;52.20;25.70;;;;;;;3.12;58.25;101726.27;107614;1255;107755;-69
2024/03/07 03:43:18;;;;;;;57.70;27.40;;;;;;;3.14;57.91;101726.91;107621;1254;96479;-70
2024/03/07 03:45:47;;;;;;;58.00;28.80;;;;;;;3.11;57.90;101728.13;107661;1253;97177;-67
2024/03/07 03:48:16;;;;;;;58.10;28.40;;;;;;;3.01;58.11;101728.16;107617;1256;110959;-67
2024/03/07 03:50:46;;;;;;;62.60;28.80;;;;;;;2.91;58.19;101735.48;107637;1251;108370;-68
2024/03/07 03:53:15;;;;;;;56.40;27.20;;;;;;;2.90;58.26;101737.83;107470;1254;107846;-67
2024/03/07 03:55:43;;;;;;;65.20;29.30;;;;;;;2.89;58.14;101738.42;107705;1253;96481;-67
2024/03/07 03:58:12;;;;;;;63.00;28.10;;;;;;;2.89;58.14;101738.93;107619;1254;96481;-67
2024/03/07 04:00:43;;;;;;;65.30;28.80;;;;;;;2.89;58.10;101737.34;107638;1251;108347;-66
2024/03/07 04:03:11;;;;;;;67.10;29.00;;;;;;;2.88;58.34;101737.73;107646;1251;107922;-68
2024/03/07 04:05:41;;;;;;;55.70;27.70;;;;;;;2.88;58.27;101743.05;107609;1251;107939;-67
2024/03/07 04:08:10;;;;;;;59.20;28.30;;;;;;;2.89;58.11;101742.13;107593;1251;96360;-66
2024/03/07 04:10:39;;;;;;;61.70;30.00;;;;;;;2.84;58.46;101742.14;107590;1253;96399;-68
2024/03/07 04:13:08;;;;;;;70.30;32.60;;;;;;;2.77;58.41;101743.46;107638;1254;110589;-67
2024/03/07 04:15:37;;;;;;;58.40;29.80;;;;;;;2.75;58.23;101746.02;107668;1255;108798;-67
2024/03/07 04:18:07;;;;;;;64.20;30.10;;;;;;;2.76;58.32;101745.13;107423;1254;107337;-68
2024/03/07 04:20:36;;;;;;;65.50;30.90;;;;;;;2.78;58.27;101742.94;107623;1253;96518;-67
2024/03/07 04:23:05;;;;;;;66.60;30.60;;;;;;;2.79;58.27;101737.90;107685;1253;98216;-69
2024/03/07 04:25:36;;;;;;;70.20;32.50;;;;;;;2.73;58.55;101737.80;107581;1251;109895;-65
2024/03/07 04:28:05;;;;;;;66.50;30.60;;;;;;;2.69;58.36;101742.73;107529;1254;108583;-67
2024/03/07 04:30:33;;;;;;;63.40;29.90;;;;;;;2.71;58.39;101746.91;107506;1253;107699;-66
2024/03/07 04:33:02;;;;;;;65.90;29.80;;;;;;;2.73;58.54;101746.67;107666;1253;96565;-65
2024/03/07 04:35:31;;;;;;;74.00;31.90;;;;;;;2.72;58.52;101752.19;107680;1253;96374;-68
2024/03/07 04:37:59;;;;;;;65.70;31.40;;;;;;;2.71;58.33;101755.08;107652;1252;110034;-67
2024/03/07 04:40:28;;;;;;;74.80;31.50;;;;;;;2.67;58.19;101759.48;107646;1255;107953;-67
2024/03/07 04:42:56;;;;;;;74.30;34.50;;;;;;;2.61;58.09;101762.89;107645;1253;107651;-67
2024/03/07 04:45:25;;;;;;;74.70;31.80;;;;;;;2.53;58.26;101768.16;107653;1253;96475;-66
2024/03/07 04:47:53;;;;;;;73.00;32.80;;;;;;;2.48;58.43;101778.98;107546;1252;96545;-66
2024/03/07 04:50:21;;;;;;;72.70;32.70;;;;;;;2.41;58.40;101779.08;107684;1251;110750;-67
2024/03/07 04:52:50;;;;;;;76.70;32.00;;;;;;;2.33;58.39;101786.25;107657;1251;107816;-69
2024/03/07 04:55:19;;;;;;;82.80;31.40;;;;;;;2.28;58.59;101786.08;107560;1253;108978;-69
2024/03/07 04:57:48;;;;;;;74.60;31.70;;;;;;;2.27;58.69;101787.90;107653;1255;96505;-65
2024/03/07 05:00:19;;;;;;;75.20;31.80;;;;;;;2.35;58.83;101790.28;107482;1252;96438;-66
2024/03/07 05:02:50;;;;;;;79.50;31.20;;;;;;;2.44;58.65;101791.35;107644;1251;110692;-69
2024/03/07 05:05:22;;;;;;;72.30;31.50;;;;;;;2.54;58.84;101795.40;107628;1256;108851;-69
2024/03/07 05:07:52;;;;;;;76.20;30.90;;;;;;;2.59;58.73;101801.77;107632;1251;106619;-67
2024/03/07 05:10:21;;;;;;;74.60;32.60;;;;;;;2.56;58.37;101798.34;107607;1251;96521;-68
2024/03/07 05:12:50;;;;;;;66.60;30.80;;;;;;;2.53;58.48;101799.17;107657;1251;96519;-69
2024/03/07 05:15:19;;;;;;;80.70;32.60;;;;;;;2.49;58.53;101804.27;107657;1251;109667;-67
2024/03/07 05:17:47;;;;;;;80.50;32.30;;;;;;;2.46;58.51;101808.07;107646;1252;107666;-69
2024/03/07 05:20:16;;;;;;;81.10;33.70;;;;;;;2.51;58.74;101806.13;107633;1253;107123;-68
2024/03/07 05:22:50;;;;;;;92.70;36.30;;;;;;;2.53;58.77;101806.39;107687;1252;96481;-71
2024/03/07 05:25:21;;;;;;;77.20;32.90;;;;;;;2.55;58.73;101810.75;107634;1253;96470;-71
2024/03/07 05:27:50;;;;;;;77.30;32.20;;;;;;;2.66;58.76;101814.95;107498;1253;108331;-68
2024/03/07 05:30:19;;;;;;;71.80;31.00;;;;;;;2.72;58.58;101817.40;107447;1251;106764;-67
2024/03/07 05:32:48;;;;;;;86.10;35.00;;;;;;;2.77;58.47;101822.50;107527;1253;107514;-69
2024/03/07 05:35:16;;;;;;;85.70;32.70;;;;;;;2.80;58.25;101826.61;107639;1251;96478;-66
2024/03/07 05:37:50;;;;;;;79.80;32.70;;;;;;;2.79;58.10;101828.81;107475;1251;96572;-67
2024/03/07 05:40:20;;;;;;;74.10;30.90;;;;;;;2.73;58.22;101826.36;107657;1251;110701;-68
2024/03/07 05:42:49;;;;;;;69.80;31.40;;;;;;;2.73;58.20;101827.79;107698;1251;108026;-68
2024/03/07 05:45:17;;;;;;;78.40;32.30;;;;;;;2.75;57.82;101827.34;107656;1251;107610;-69
2024/03/07 05:47:47;;;;;;;68.20;30.60;;;;;;;2.71;57.96;101828.02;107646;1251;96470;-68
2024/03/07 05:50:18;;;;;;;77.60;32.90;;;;;;;2.65;57.90;101829.14;107646;1251;97029;-69
2024/03/07 05:52:48;;;;;;;90.10;35.30;;;;;;;2.56;58.19;101826.30;107626;1251;108999;-67
2024/03/07 05:55:19;;;;;;;67.80;30.50;;;;;;;2.59;58.45;101831.34;107606;1251;108657;-66
2024/03/07 05:57:48;;;;;;;67.50;30.80;;;;;;;2.66;58.19;101833.36;107646;1251;108503;-67
2024/03/07 06:00:26;;;;;;;77.20;31.90;;;;;;;2.75;58.20;101832.70;107548;1250;96486;-65
2024/03/07 06:02:56;;;;;;;75.60;31.60;;;;;;;2.81;57.89;101836.69;107623;1250;96507;-68
2024/03/07 06:05:26;;;;;;;81.40;31.70;;;;;;;2.88;57.84;101835.55;107656;1250;110365;-67
2024/03/07 06:07:56;;;;;;;87.30;33.90;;;;;;;2.89;57.75;101838.31;107601;1249;108611;-66
2024/03/07 06:10:25;;;;;;;82.90;32.50;;;;;;;2.87;57.60;101836.27;107517;1250;107918;-68
2024/03/07 06:12:53;;;;;;;83.60;32.80;;;;;;;2.84;57.56;101840.14;107730;1250;96475;-68
2024/03/07 06:15:25;;;;;;;97.20;32.50;;;;;;;2.81;57.47;101838.30;107493;1251;96447;-69
2024/03/07 06:17:53;;;;;;;81.10;34.10;;;;;;;2.80;57.59;101844.86;107514;1251;110744;-69
2024/03/07 06:20:22;;;;;;;79.60;31.40;;;;;;;2.81;57.50;101845.02;107665;1251;107799;-68
2024/03/07 06:22:55;;;;;;;76.30;31.10;;;;;;;2.79;57.51;101842.79;107586;1253;108172;-68
2024/03/07 06:25:34;;;;;;;78.80;32.60;;;;;;;2.74;57.43;101846.36;107642;1251;96497;-69
2024/03/07 06:28:09;;;;;;;80.00;30.10;;;;;;;2.70;57.58;101847.39;107520;1251;96586;-69
2024/03/07 06:30:43;;;;;;;72.30;32.20;;;;;;;2.73;57.55;101851.89;107639;1254;109807;-68
2024/03/07 06:33:12;;;;;;;79.90;31.60;;;;;;;2.79;57.80;101850.55;107574;1250;107492;-67
2024/03/07 06:35:41;;;;;;;74.70;32.50;;;;;;;2.89;57.77;101852.14;107591;1251;108181;-68
2024/03/07 06:38:10;;;;;;;82.00;32.40;;;;;;;2.94;57.51;101854.25;107718;1250;96593;-68
2024/03/07 06:40:40;;;;;;;78.40;31.80;;;;;;;2.96;57.37;101854.52;107633;1250;97036;-67
2024/03/07 06:43:12;;;;;;;77.20;32.20;;;;;;;2.90;57.01;101860.98;107563;1250;108995;-68
2024/03/07 06:45:45;;;;;;;85.40;32.50;;;;;;;2.87;57.33;101860.02;107633;1250;108610;-65
2024/03/07 06:48:14;;;;;;;79.30;32.00;;;;;;;2.91;57.48;101864.99;107712;1250;107800;-67
2024/03/07 06:50:44;;;;;;;76.10;31.00;;;;;;;2.95;57.28;101867.54;107531;1251;96694;-69
2024/03/07 06:53:13;;;;;;;73.70;32.20;;;;;;;2.96;57.10;101867.63;107651;1250;96482;-69
2024/03/07 06:55:41;;;;;;;67.90;32.10;;;;;;;2.95;57.03;101868.04;107665;1250;110439;-73
2024/03/07 06:58:10;;;;;;;72.70;31.10;;;;;;;2.96;57.15;101871.73;107651;1250;107675;-70
2024/03/07 07:00:40;;;;;;;82.70;30.70;;;;;;;3.09;57.19;101872.63;107641;1250;106727;-69
2024/03/07 07:03:10;;;;;;;73.40;31.60;;;;;;;3.24;57.19;101873.65;107646;1249;96565;-67
2024/03/07 07:05:42;;;;;;;67.50;32.60;;;;;;;3.36;57.01;101869.80;107687;1250;96481;-69
2024/03/07 07:08:10;;;;;;;69.80;31.50;;;;;;;3.45;56.75;101872.98;107631;1250;110047;-69
2024/03/07 07:10:40;;;;;;;74.70;30.30;;;;;;;3.52;56.61;101873.25;107643;1250;108635;-68
2024/03/07 07:13:10;;;;;;;72.80;30.20;;;;;;;3.56;56.36;101872.72;107617;1250;107197;-67
2024/03/07 07:15:39;;;;;;;65.90;29.10;;;;;;;3.63;56.50;101875.60;107699;1249;96563;-68
2024/03/07 07:18:07;;;;;;;74.50;30.80;;;;;;;3.70;56.26;101881.89;107585;1250;97000;-68
2024/03/07 07:20:36;;;;;;;77.00;32.80;;;;;;;3.74;55.86;101881.01;107663;1250;109692;-68
2024/03/07 07:23:06;;;;;;;76.60;30.80;;;;;;;3.71;55.53;101885.41;107748;1250;107261;-67
2024/03/07 07:25:34;;;;;;;68.30;30.00;;;;;;;3.71;55.64;101880.62;107628;1250;107522;-69
2024/03/07 07:28:07;;;;;;;61.80;30.00;;;;;;;3.73;55.65;101889.20;107515;1250;96385;-70
2024/03/07 07:30:37;;;;;;;71.20;30.20;;;;;;;3.78;55.59;101889.55;107698;1250;96489;-70
2024/03/07 07:33:07;;;;;;;75.80;29.30;;;;;;;3.82;55.37;101890.27;107657;1250;109882;-69
2024/03/07 07:35:37;;;;;;;87.70;29.70;;;;;;;3.89;55.56;101886.77;107531;1250;108314;-68
2024/03/07 07:38:06;;;;;;;71.40;29.50;;;;;;;3.97;55.37;101889.10;107708;1250;107149;-68
2024/03/07 07:40:36;;;;;;;75.90;31.10;;;;;;;3.98;55.05;101886.56;107623;1250;96561;-68
2024/03/07 07:43:05;;;;;;;62.90;28.80;;;;;;;3.96;54.82;101888.25;107691;1250;96479;-68
2024/03/07 07:45:35;;;;;;;65.60;29.40;;;;;;;4.04;54.91;101886.86;107659;1250;109818;-69
2024/03/07 07:48:05;;;;;;;63.00;27.60;;;;;;;4.15;54.80;101883.53;106930;1251;764212;-68
2024/03/07 07:50:34;;;;;;;73.70;27.40;;;;;;;4.29;54.30;101883.98;107499;1250;107646;-68
2024/03/07 07:53:08;;;;;;;66.30;29.50;;;;;;;4.34;54.06;101885.02;107585;1250;96490;-67
2024/03/07 07:55:38;;;;;;;68.30;28.20;;;;;;;4.40;54.07;101882.61;107514;1250;96568;-69
2024/03/07 07:58:07;;;;;;;72.70;29.30;;;;;;;4.45;54.01;101882.39;107427;1251;110524;-71
2024/03/07 08:00:36;;;;;;;60.20;28.00;;;;;;;4.52;54.09;101883.86;107378;1251;107388;-70
2024/03/07 08:03:06;;;;;;;63.30;27.30;;;;;;;4.67;54.24;101885.70;107395;1251;107801;-71
2024/03/07 08:05:36;;;;;;;69.30;28.40;;;;;;;4.83;53.70;101884.38;107551;1251;97774;-68
2024/03/07 08:08:06;;;;;;;74.20;29.40;;;;;;;4.97;53.67;101883.20;107587;1250;96476;-68
2024/03/07 08:10:38;;;;;;;69.20;27.40;;;;;;;5.10;52.44;101883.66;107578;1253;109793;-68
2024/03/07 08:13:10;;;;;;;;;;;;;;;5.12;52.65;101888.91;107554;1253;108721;-68
2024/03/07 08:15:39;;;;;;;66.70;28.90;;;;;;;5.11;52.40;101887.73;107402;1257;106920;-68
2024/03/07 08:18:10;;;;;;;59.00;28.00;;;;;;;5.08;52.49;101887.70;107494;1251;96474;-67
2024/03/07 08:20:40;;;;;;;64.00;28.30;;;;;;;5.14;52.47;101887.05;107509;1255;97022;-67
2024/03/07 08:23:10;;;;;;;56.60;29.00;;;;;;;5.22;52.38;101886.83;107571;1250;109891;-68
2024/03/07 08:25:40;;;;;;;63.90;28.90;;;;;;;5.22;52.07;101891.99;107574;1250;107410;-68
2024/03/07 08:28:09;;;;;;;60.00;28.10;;;;;;;5.24;51.92;101892.05;107572;1250;106546;-68
2024/03/07 08:30:38;;;;;;;64.70;27.30;;;;;;;5.35;52.25;101899.58;107579;1251;96489;-71
2024/03/07 08:33:07;;;;;;;66.00;27.80;;;;;;;5.56;51.81;101901.55;107585;1250;96471;-70
2024/03/07 08:35:36;;;;;;;56.20;28.00;;;;;;;5.75;51.33;101900.98;107516;1254;109871;-71
2024/03/07 08:38:05;;;;;;;62.10;27.20;;;;;;;5.89;51.07;101905.80;107509;1256;108110;-68
2024/03/07 08:40:33;;;;;;;61.40;27.90;;;;;;;5.99;50.16;101901.22;107402;1249;108635;-68
2024/03/07 08:43:03;;;;;;;63.60;28.60;;;;;;;6.11;50.14;101903.63;107437;1250;96612;-68
2024/03/07 08:45:35;;;;;;;56.70;26.50;;;;;;;6.20;49.91;101902.12;107557;1250;96393;-68
2024/03/07 08:48:04;;;;;;;58.80;26.90;;;;;;;6.21;49.24;101904.91;107548;1251;109951;-67
2024/03/07 08:50:34;;;;;;;61.10;27.60;;;;;;;6.16;49.49;101900.22;107535;1251;107749;-68
2024/03/07 08:53:07;;;;;;;68.30;28.30;;;;;;;6.17;49.06;101898.68;107565;1250;107147;-67
2024/03/07 08:55:36;;;;;;;50.30;25.00;;;;;;;6.20;49.22;101892.70;107483;1250;96613;-67
2024/03/07 08:58:08;;;;;;;56.60;26.20;;;;;;;6.31;48.87;101901.55;107535;1250;96552;-68
2024/03/07 09:00:37;;;;;;;57.40;26.10;;;;;;;6.41;49.45;101900.69;107478;1250;110812;-68
2024/03/07 09:03:10;;;;;;;67.30;28.70;;;;;;;6.47;49.15;101898.19;107533;1250;108309;-71
2024/03/07 09:05:43;;;;;;;64.20;27.30;;;;;;;6.56;48.82;101899.55;107515;1250;108021;-71
2024/03/07 09:08:11;;;;;;;68.10;25.70;;;;;;;6.71;48.63;101898.37;107499;1251;96476;-70
2024/03/07 09:10:41;;;;;;;59.90;25.60;;;;;;;6.95;48.57;101899.71;107535;1255;96506;-71
2024/03/07 09:13:10;;;;;;;62.60;27.40;;;;;;;7.20;47.76;101898.89;107589;1251;109371;-70
2024/03/07 09:15:39;;;;;;;83.20;33.00;;;;;;;7.42;47.33;101899.26;107636;1250;107923;-70
2024/03/07 09:18:08;;;;;;;58.30;27.90;;;;;;;7.64;46.65;101892.11;107548;1250;107615;-68
2024/03/07 09:20:38;;;;;;;59.20;25.80;;;;;;;7.87;46.37;101898.45;107439;1250;96580;-68
2024/03/07 09:23:07;;;;;;;57.20;28.10;;;;;;;8.22;47.01;101892.45;107478;1249;96892;-68
2024/03/07 09:25:36;;;;;;;54.70;25.80;;;;;;;8.51;45.73;101894.45;107531;1251;110760;-66
2024/03/07 09:28:06;;;;;;;54.40;24.40;;;;;;;8.64;45.28;101891.13;107505;1251;106799;-67
2024/03/07 09:30:38;;;;;;;57.70;25.00;;;;;;;8.79;45.69;101892.37;107517;1250;106914;-65
2024/03/07 09:33:10;;;;;;;55.20;25.20;;;;;;;8.94;45.47;101893.76;107535;1250;96511;-66
2024/03/07 09:35:40;;;;;;;53.20;25.20;;;;;;;9.18;45.24;101894.04;107558;1250;97046;-65
2024/03/07 09:38:08;;;;;;;52.50;24.00;;;;;;;9.33;43.76;101891.95;107707;1250;109379;-68
2024/03/07 09:40:37;;;;;;;48.30;22.80;;;;;;;9.58;43.76;101890.32;107525;1251;108272;-71
2024/03/07 09:43:09;;;;;;;56.50;26.00;;;;;;;10.24;42.61;101886.09;107620;1251;107136;-71
2024/03/07 09:45:40;;;;;;;54.10;26.10;;;;;;;10.89;42.24;101885.31;107533;1251;96469;-72
2024/03/07 09:48:12;;;;;;;51.20;23.80;;;;;;;11.74;41.87;101878.33;107655;1251;97929;-72
2024/03/07 09:50:46;;;;;;;48.60;24.90;;;;;;;12.49;41.45;101877.77;107579;1249;109875;-70
2024/03/07 09:53:17;;;;;;;48.50;24.20;;;;;;;13.18;38.60;101875.16;107646;1250;107346;-68
2024/03/07 09:55:45;;;;;;;53.90;24.70;;;;;;;13.61;38.31;101875.26;107549;1250;107738;-69
2024/03/07 09:58:19;;;;;;;53.10;23.40;;;;;;;14.24;38.68;101878.95;107553;1251;96505;-69
2024/03/07 10:00:50;;;;;;;41.80;23.00;;;;;;;14.96;38.30;101874.66;107604;1251;97062;-69
2024/03/07 10:03:23;;;;;;;40.40;22.20;;;;;;;15.59;34.16;101869.52;107637;1251;110003;-67
2024/03/07 10:05:52;;;;;;;51.30;22.50;;;;;;;15.77;34.93;101870.40;107598;1251;108049;-67
2024/03/07 10:08:23;;;;;;;55.70;24.00;;;;;;;16.08;33.13;101869.31;107576;1251;108897;-68
2024/03/07 10:10:56;;;;;;;43.10;22.00;;;;;;;16.25;32.38;101867.96;107667;1251;96488;-70
2024/03/07 10:13:25;;;;;;;45.80;22.10;;;;;;;16.37;33.31;101864.96;107716;1251;96517;-67
2024/03/07 10:15:59;;;;;;;44.40;22.00;;;;;;;16.78;33.09;101864.47;107558;1251;110752;-68
2024/03/07 10:18:29;;;;;;;43.10;23.20;;;;;;;17.02;32.45;101863.02;107688;1251;108582;-71
2024/03/07 10:20:58;;;;;;;43.90;23.30;;;;;;;17.19;29.64;101860.14;107577;1251;107734;-71
2024/03/07 10:23:27;;;;;;;41.80;22.20;;;;;;;17.10;29.36;101858.70;107643;1251;96563;-71
2024/03/07 10:25:56;;;;;;;39.20;23.20;;;;;;;16.89;29.87;101859.55;107673;1251;96981;-72
2024/03/07 10:28:28;;;;;;;43.90;25.50;;;;;;;17.05;30.72;101857.19;107656;1250;109999;-71
2024/03/07 10:30:56;;;;;;;38.80;21.20;;;;;;;17.42;30.09;101850.64;107675;1250;107860;-69
2024/03/07 10:33:28;;;;;;;47.00;22.30;;;;;;;17.60;28.98;101850.42;107552;1254;107789;-70
2024/03/07 10:35:57;;;;;;;43.50;22.20;;;;;;;17.08;29.06;101850.08;107541;1251;96489;-70
2024/03/07 10:38:26;;;;;;;44.60;23.10;;;;;;;16.75;29.14;101852.48;107495;1250;96485;-69
2024/03/07 10:40:55;;;;;;;41.20;22.60;;;;;;;16.97;28.97;101851.00;107523;1251;109850;-67
2024/03/07 10:43:29;;;;;;;48.30;22.50;;;;;;;17.25;29.24;101845.61;107697;1251;108080;-67
2024/03/07 10:46:01;;;;;;;49.40;22.30;;;;;;;17.34;27.67;101846.62;107641;1251;108792;-67
2024/03/07 10:48:39;;;;;;;41.50;20.80;;;;;;;17.14;28.74;101849.23;107610;1253;96477;-68
2024/03/07 10:51:21;;;;;;;37.40;20.80;;;;;;;17.52;27.83;101844.34;107572;1251;96469;-68
2024/03/07 10:54:14;;;;;;;35.90;19.90;;;;;;;17.14;27.71;101846.70;107639;1256;109098;-69
2024/03/07 10:57:08;;;;;;;42.10;20.80;;;;;;;16.84;27.63;101844.34;107666;1251;107498;-73
2024/03/07 10:59:41;;;;;;;42.00;20.40;;;;;;;16.95;28.88;101841.98;107589;1254;106215;-68
2024/03/07 11:02:37;;;;;;;31.20;19.30;;;;;;;17.39;29.37;101838.88;107617;1251;96482;-68
2024/03/07 11:05:12;;;;;;;52.20;20.50;;;;;;;18.08;28.79;101831.16;107643;1254;96482;-69
2024/03/07 11:07:41;;;;;;;49.50;22.90;;;;;;;18.71;27.80;101825.14;107667;1251;110831;-69
2024/03/07 11:10:11;;;;;;;45.80;22.30;;;;;;;18.97;27.39;101824.73;107673;1251;107581;-69
2024/03/07 11:12:41;;;;;;;41.50;21.80;;;;;;;19.07;25.07;101824.98;107579;1251;107671;-69
2024/03/07 11:15:14;;;;;;;42.70;21.70;;;;;;;18.42;26.23;101824.55;107618;1251;96492;-68
2024/03/07 11:17:44;;;;;;;;;;;;;;;17.67;26.86;101829.23;107698;1251;96591;-67